createdAt,value
2018-06-20T00:01:02.295Z,7.37
2018-06-20T00:03:06.315Z,7.17
2018-06-20T00:05:10.002Z,9.60
2018-06-20T00:07:13.932Z,8.27
2018-06-20T00:09:17.499Z,6.67
2018-06-20T00:11:23.746Z,7.00
2018-06-20T00:13:27.481Z,10.10
2018-06-20T00:15:31.191Z,6.93
2018-06-20T00:17:34.868Z,7.10
2018-06-20T00:19:38.588Z,7.10
2018-06-20T00:21:42.365Z,8.77
2018-06-20T00:23:46.062Z,6.80
2018-06-20T00:25:50.000Z,7.03
2018-06-20T00:27:53.736Z,6.53
2018-06-20T00:29:57.456Z,6.47
2018-06-20T00:32:01.102Z,7.07
2018-06-20T00:34:04.820Z,7.03
2018-06-20T00:36:08.899Z,7.20
2018-06-20T00:38:12.564Z,7.60
2018-06-20T00:40:16.309Z,6.00
2018-06-20T00:42:19.924Z,6.90
2018-06-20T00:44:23.563Z,8.27
2018-06-20T00:46:27.528Z,7.60
2018-06-20T00:48:31.163Z,6.60
2018-06-20T00:50:34.786Z,6.57
2018-06-20T00:52:38.537Z,7.53
2018-06-20T00:54:42.196Z,7.07
2018-06-20T00:56:46.257Z,7.23
2018-06-20T00:58:49.937Z,8.13
2018-06-20T01:00:53.693Z,7.60
2018-06-20T01:02:57.540Z,7.43
2018-06-20T01:05:01.270Z,7.03
2018-06-20T01:07:05.064Z,7.63
2018-06-20T01:09:10.505Z,6.70
2018-06-20T01:11:14.052Z,8.00
2018-06-20T01:13:17.679Z,6.80
2018-06-20T01:15:21.344Z,7.20
2018-06-20T01:17:25.361Z,8.13
2018-06-20T01:19:28.979Z,7.53
2018-06-20T01:21:32.751Z,8.20
2018-06-20T01:23:36.502Z,7.30
2018-06-20T01:25:40.276Z,6.90
2018-06-20T01:27:43.984Z,8.27
2018-06-20T01:29:47.542Z,7.27
2018-06-20T01:31:51.246Z,8.10
2018-06-20T01:33:55.343Z,7.57
2018-06-20T01:35:58.990Z,6.30
2018-06-20T01:38:02.615Z,7.10
2018-06-20T01:40:06.339Z,8.47
2018-06-20T01:42:09.973Z,10.10
2018-06-20T01:44:13.761Z,8.17
2018-06-20T01:46:17.485Z,7.37
2018-06-20T01:48:21.113Z,8.50
2018-06-20T01:50:28.176Z,7.77
2018-06-20T01:52:31.769Z,7.83
2018-06-20T01:54:35.426Z,7.90
2018-06-20T01:56:39.197Z,7.33
2018-06-20T01:58:42.878Z,8.70
2018-06-20T02:00:46.525Z,9.37
2018-06-20T02:02:50.189Z,8.47
2018-06-20T02:04:53.826Z,7.67
2018-06-20T02:06:57.540Z,8.50
2018-06-20T02:09:01.178Z,8.77
2018-06-20T02:11:05.142Z,8.57
2018-06-20T02:13:08.801Z,8.57
2018-06-20T02:15:12.606Z,8.80
2018-06-20T02:17:16.140Z,8.43
2018-06-20T02:19:20.324Z,8.47
2018-06-20T02:21:24.134Z,8.07
2018-06-20T02:23:27.785Z,8.20
2018-06-20T02:25:31.512Z,8.27
2018-06-20T02:27:35.194Z,8.17
2018-06-20T02:29:38.969Z,10.00
2018-06-20T02:31:42.839Z,8.53
2018-06-20T02:33:46.422Z,7.60
2018-06-20T02:35:50.278Z,7.77
2018-06-20T02:37:53.998Z,8.13
2018-06-20T02:39:57.692Z,8.70
2018-06-20T02:42:01.453Z,9.40
2018-06-20T02:44:05.346Z,8.33
2018-06-20T02:46:09.090Z,9.67
2018-06-20T02:48:12.800Z,7.97
2018-06-20T02:50:16.377Z,7.57
2018-06-20T02:52:20.087Z,7.70
2018-06-20T02:54:23.952Z,7.37
2018-06-20T02:56:27.700Z,7.33
2018-06-20T02:58:31.316Z,9.63
2018-06-20T03:00:35.020Z,8.93
2018-06-20T03:02:38.750Z,8.40
2018-06-20T03:04:42.324Z,8.63
2018-06-20T03:06:46.056Z,7.23
2018-06-20T03:08:55.071Z,8.40
2018-06-20T03:10:58.744Z,8.97
2018-06-20T03:13:02.316Z,7.87
2018-06-20T03:15:06.145Z,9.13
2018-06-20T03:17:09.792Z,10.50
2018-06-20T03:19:13.557Z,7.83
2018-06-20T03:21:17.269Z,8.13
2018-06-20T03:23:21.049Z,8.37
2018-06-20T03:25:24.682Z,7.80
2018-06-20T03:27:28.592Z,8.23
2018-06-20T03:29:32.251Z,8.70
2018-06-20T03:31:35.998Z,7.67
2018-06-20T03:33:39.824Z,9.27
2018-06-20T03:35:43.515Z,10.57
2018-06-20T03:37:48.122Z,8.07
2018-06-20T03:39:51.996Z,7.77
2018-06-20T03:41:55.667Z,9.07
2018-06-20T03:43:59.346Z,7.77
2018-06-20T03:46:03.283Z,7.20
2018-06-20T03:48:06.970Z,7.10
2018-06-20T03:50:10.885Z,7.93
2018-06-20T03:52:14.556Z,9.87
2018-06-20T03:54:18.253Z,8.00
2018-06-20T03:56:21.999Z,8.13
2018-06-20T03:58:25.658Z,8.03
2018-06-20T04:00:29.332Z,7.60
2018-06-20T04:02:33.098Z,7.90
2018-06-20T04:04:36.929Z,7.30
2018-06-20T04:06:40.646Z,7.63
2018-06-20T04:08:44.209Z,8.67
2018-06-20T04:10:48.071Z,7.53
2018-06-20T04:12:51.764Z,7.93
2018-06-20T04:14:55.454Z,7.93
2018-06-20T04:16:59.220Z,8.87
2018-06-20T04:19:03.840Z,7.07
2018-06-20T04:21:07.627Z,9.17
2018-06-20T04:23:11.245Z,7.67
2018-06-20T04:25:14.900Z,7.93
2018-06-20T04:27:18.561Z,8.60
2018-06-20T04:29:22.300Z,9.07
2018-06-20T04:31:28.950Z,7.40
2018-06-20T04:33:33.123Z,7.27
2018-06-20T04:35:36.863Z,7.27
2018-06-20T04:37:40.620Z,8.37
2018-06-20T04:39:44.230Z,7.73
2018-06-20T04:41:48.277Z,8.20
2018-06-20T04:43:51.930Z,7.57
2018-06-20T04:45:56.048Z,7.40
2018-06-20T04:47:59.721Z,9.03
2018-06-20T04:50:05.439Z,7.83
2018-06-20T04:52:09.082Z,11.30
2018-06-20T04:54:12.805Z,9.07
2018-06-20T04:56:16.604Z,9.30
2018-06-20T04:58:20.406Z,7.37
2018-06-20T05:00:24.086Z,10.07
2018-06-20T05:02:27.829Z,8.17
2018-06-20T05:04:31.719Z,9.33
2018-06-20T05:06:35.504Z,7.87
2018-06-20T05:08:39.296Z,7.27
2018-06-20T05:10:43.168Z,7.43
2018-06-20T05:12:46.811Z,9.27
2018-06-20T05:14:50.496Z,7.30
2018-06-20T05:16:54.307Z,8.00
2018-06-20T05:18:58.729Z,7.37
2018-06-20T05:21:02.440Z,7.83
2018-06-20T05:23:06.219Z,7.97
2018-06-20T05:25:09.836Z,9.27
2018-06-20T05:27:13.590Z,8.07
2018-06-20T05:29:17.259Z,8.13
2018-06-20T05:31:20.938Z,9.13
2018-06-20T05:33:24.554Z,9.63
2018-06-20T05:35:28.296Z,9.07
2018-06-20T05:37:32.052Z,9.83
2018-06-20T05:39:35.777Z,10.20
2018-06-20T05:41:39.584Z,8.47
2018-06-20T05:43:43.481Z,9.10
2018-06-20T05:45:47.328Z,9.53
2018-06-20T05:47:50.944Z,7.37
2018-06-20T05:49:54.764Z,9.53
2018-06-20T05:51:58.464Z,6.57
2018-06-20T05:54:02.117Z,8.90
2018-06-20T05:56:05.941Z,7.47
2018-06-20T05:58:09.627Z,5.93
2018-06-20T06:00:13.288Z,5.67
2018-06-20T06:02:16.986Z,7.30
2018-06-20T06:04:20.940Z,6.30
2018-06-20T06:06:24.635Z,5.43
2018-06-20T06:08:28.255Z,6.13
2018-06-20T06:10:31.940Z,5.53
2018-06-20T06:12:35.547Z,7.83
2018-06-20T06:14:39.171Z,6.53
2018-06-20T06:16:43.212Z,5.63
2018-06-20T06:18:47.024Z,6.07
2018-06-20T06:20:50.611Z,6.17
2018-06-20T06:22:54.208Z,6.00
2018-06-20T06:24:57.841Z,5.77
2018-06-20T06:27:01.501Z,5.40
2018-06-20T06:29:05.085Z,8.43
2018-06-20T06:31:08.856Z,4.90
2018-06-20T06:33:12.672Z,5.93
2018-06-20T06:35:16.900Z,6.10
2018-06-20T06:37:20.666Z,6.07
2018-06-20T06:39:24.513Z,5.23
2018-06-20T06:41:28.276Z,5.63
2018-06-20T06:43:31.882Z,4.73
2018-06-20T06:45:35.585Z,4.73
2018-06-20T06:47:39.387Z,4.70
2018-06-20T06:49:43.130Z,4.23
2018-06-20T06:51:46.812Z,4.20
2018-06-20T06:53:56.868Z,4.13
2018-06-20T06:56:00.557Z,4.83
2018-06-20T06:58:04.360Z,3.47
2018-06-20T07:00:07.923Z,4.73
2018-06-20T07:02:11.553Z,4.40
2018-06-20T07:04:15.343Z,3.80
2018-06-20T07:06:18.984Z,4.27
2018-06-20T07:08:22.723Z,4.60
2018-06-20T07:10:26.505Z,3.33
2018-06-20T07:12:30.311Z,3.53
2018-06-20T07:14:33.964Z,3.53
2018-06-20T07:16:37.567Z,4.00
2018-06-20T07:18:41.206Z,3.10
2018-06-20T07:20:44.805Z,4.33
2018-06-20T07:22:48.517Z,6.77
2018-06-20T07:24:52.128Z,3.97
2018-06-20T07:26:55.748Z,3.50
2018-06-20T07:28:59.365Z,2.77
2018-06-20T07:31:03.337Z,2.93
2018-06-20T07:33:07.088Z,5.93
2018-06-20T07:35:10.743Z,4.00
2018-06-20T07:37:14.471Z,2.70
2018-06-20T07:39:18.164Z,2.53
2018-06-20T07:41:21.914Z,3.30
2018-06-20T07:43:25.737Z,4.00
2018-06-20T07:45:29.473Z,3.80
2018-06-20T07:47:33.121Z,3.90
2018-06-20T07:49:36.777Z,3.70
2018-06-20T07:51:40.420Z,2.90
2018-06-20T07:53:43.993Z,2.80
2018-06-20T07:55:47.583Z,3.60
2018-06-20T07:57:51.270Z,2.50
2018-06-20T08:00:00.316Z,2.73
2018-06-20T08:03:17.997Z,3.27
2018-06-20T08:05:26.940Z,2.13
2018-06-20T08:07:35.881Z,3.33
2018-06-20T08:09:44.841Z,2.07
2018-06-20T08:11:53.638Z,3.73
2018-06-20T08:14:02.357Z,1.97
2018-06-20T08:16:11.308Z,2.53
2018-06-20T08:18:20.101Z,1.60
2018-06-20T08:20:25.011Z,1.67
2018-06-20T08:22:29.167Z,2.07
2018-06-20T08:24:32.800Z,2.80
2018-06-20T08:26:36.706Z,2.53
2018-06-20T08:28:40.297Z,3.40
2018-06-20T08:30:44.000Z,2.47
2018-06-20T08:32:48.162Z,2.00
2018-06-20T08:34:52.415Z,1.87
2018-06-20T08:36:56.568Z,3.27
2018-06-20T08:39:00.274Z,2.85
2018-06-20T08:41:03.917Z,2.53
2018-06-20T08:43:07.611Z,2.37
2018-06-20T08:45:11.809Z,2.02
2018-06-20T08:47:16.445Z,1.80
2018-06-20T08:49:20.652Z,2.27
2018-06-20T08:51:24.949Z,2.22
2018-06-20T08:53:29.299Z,1.92
2018-06-20T08:55:33.742Z,2.52
2018-06-20T08:57:37.990Z,3.80
2018-06-20T08:59:42.208Z,2.40
2018-06-20T09:01:46.419Z,3.15
2018-06-20T09:03:53.743Z,2.12
2018-06-20T09:06:03.382Z,2.22
2018-06-20T09:08:13.030Z,2.05
2018-06-20T09:10:22.423Z,1.67
2018-06-20T09:12:31.932Z,2.27
2018-06-20T09:14:41.497Z,2.20
2018-06-20T09:16:51.002Z,2.10
2018-06-20T09:19:00.519Z,1.70
2018-06-20T09:21:04.812Z,2.12
2018-06-20T09:23:09.119Z,2.25
2018-06-20T09:25:13.339Z,1.95
2018-06-20T09:27:17.726Z,1.90
2018-06-20T09:29:21.963Z,2.75
2018-06-20T09:31:26.199Z,1.98
2018-06-20T09:33:30.473Z,2.15
2018-06-20T09:35:34.867Z,1.90
2018-06-20T09:37:39.211Z,3.33
2018-06-20T09:39:43.536Z,3.27
2018-06-20T09:41:47.947Z,1.82
2018-06-20T09:43:52.217Z,2.45
2018-06-20T09:45:56.344Z,2.00
2018-06-20T09:48:00.610Z,2.62
2018-06-20T09:50:10.078Z,2.27
2018-06-20T09:52:14.376Z,3.22
2018-06-20T09:54:18.684Z,1.92
2018-06-20T09:56:23.083Z,2.10
2018-06-20T09:58:27.494Z,2.33
2018-06-20T10:00:37.120Z,2.70
2018-06-20T10:02:46.843Z,2.62
2018-06-20T10:04:56.284Z,2.05
2018-06-20T10:07:05.807Z,2.08
2018-06-20T10:09:15.322Z,2.80
2018-06-20T10:11:24.792Z,3.58
2018-06-20T10:13:29.160Z,2.27
2018-06-20T10:15:33.507Z,2.35
2018-06-20T10:17:37.776Z,2.10
2018-06-20T10:19:42.042Z,4.60
2018-06-20T10:21:46.279Z,4.80
2018-06-20T10:23:50.463Z,2.42
2018-06-20T10:25:55.235Z,4.05
2018-06-20T10:28:00.223Z,2.92
2018-06-20T10:30:04.733Z,4.85
2018-06-20T10:32:08.944Z,3.15
2018-06-20T10:34:13.321Z,2.65
2018-06-20T10:36:17.723Z,5.83
2018-06-20T10:38:21.964Z,1.70
2018-06-20T10:40:26.264Z,2.20
2018-06-20T10:42:30.541Z,3.83
2018-06-20T10:44:35.033Z,3.33
2018-06-20T10:46:44.729Z,1.80
2018-06-20T10:48:49.099Z,1.77
2018-06-20T10:50:52.913Z,5.97
2018-06-20T10:52:56.528Z,4.10
2018-06-20T10:55:00.337Z,2.30
2018-06-20T10:57:09.221Z,1.93
2018-06-20T10:59:17.952Z,3.07
2018-06-20T11:02:27.372Z,3.47
2018-06-20T11:04:37.524Z,2.53
2018-06-20T11:06:46.812Z,3.03
2018-06-20T11:08:55.629Z,2.20
2018-06-20T11:11:04.712Z,2.80
2018-06-20T11:13:14.228Z,2.70
2018-06-20T11:15:18.008Z,3.47
2018-06-20T11:17:21.725Z,2.27
2018-06-20T11:19:25.438Z,3.10
2018-06-20T11:21:29.146Z,2.77
2018-06-20T11:23:32.942Z,4.63
2018-06-20T11:25:36.915Z,2.20
2018-06-20T11:27:40.512Z,1.87
2018-06-20T11:29:44.212Z,2.60
2018-06-20T11:31:48.016Z,3.47
2018-06-20T11:33:51.751Z,1.90
2018-06-20T11:35:55.503Z,1.53
2018-06-20T11:37:59.240Z,2.90
2018-06-20T11:40:03.095Z,2.87
2018-06-20T11:42:06.884Z,2.53
2018-06-20T11:44:11.777Z,2.73
2018-06-20T11:46:20.900Z,3.80
2018-06-20T11:48:24.829Z,3.53
2018-06-20T11:50:28.624Z,4.40
2018-06-20T11:52:37.440Z,3.03
2018-06-20T11:54:41.214Z,2.03
2018-06-20T11:56:44.899Z,3.80
2018-06-20T11:58:53.766Z,2.33
2018-06-20T12:01:03.216Z,2.12
2018-06-20T12:03:13.305Z,3.52
2018-06-20T12:05:22.860Z,2.27
2018-06-20T12:08:35.188Z,2.22
2018-06-20T12:10:44.648Z,2.70
2018-06-20T12:12:54.378Z,2.20
2018-06-20T12:15:03.286Z,2.23
2018-06-20T12:17:06.395Z,1.90
2018-06-20T12:19:15.320Z,1.87
2018-06-20T12:21:24.857Z,3.40
2018-06-20T12:23:33.800Z,2.00
2018-06-20T12:25:42.781Z,2.00
2018-06-20T12:27:51.741Z,4.53
2018-06-20T12:30:00.781Z,2.67
2018-06-20T12:32:09.668Z,4.47
2018-06-20T12:34:18.516Z,2.53
2018-06-20T12:36:27.600Z,1.70
2018-06-20T12:38:36.719Z,2.40
2018-06-20T12:40:46.070Z,2.30
2018-06-20T12:42:55.098Z,2.67
2018-06-20T12:45:01.074Z,3.23
2018-06-20T12:47:09.778Z,2.87
2018-06-20T12:49:18.689Z,2.33
2018-06-20T12:51:23.287Z,2.93
2018-06-20T12:53:27.291Z,3.87
2018-06-20T12:55:30.910Z,4.40
2018-06-20T12:57:35.203Z,3.53
2018-06-20T12:59:38.818Z,1.90
2018-06-20T13:01:42.642Z,4.40
2018-06-20T13:03:46.460Z,3.13
2018-06-20T13:05:50.144Z,4.10
2018-06-20T13:07:53.830Z,3.83
2018-06-20T13:09:57.470Z,1.97
2018-06-20T13:12:01.236Z,3.17
2018-06-20T13:14:05.058Z,4.63
2018-06-20T13:16:09.664Z,2.13
2018-06-20T13:18:13.992Z,3.53
2018-06-20T13:20:17.724Z,3.37
2018-06-20T13:22:21.533Z,3.50
2018-06-20T13:24:25.273Z,3.57
2018-06-20T13:26:28.869Z,3.87
2018-06-20T13:28:32.525Z,5.37
2018-06-20T13:30:36.344Z,2.47
2018-06-20T13:32:45.120Z,2.20
2018-06-20T13:34:54.307Z,2.30
2018-06-20T13:37:04.566Z,3.20
2018-06-20T13:39:13.852Z,3.70
2018-06-20T13:41:22.791Z,2.40
2018-06-20T13:43:31.719Z,3.37
2018-06-20T13:45:40.821Z,3.23
2018-06-20T13:47:50.098Z,3.13
2018-06-20T13:49:57.969Z,2.73
2018-06-20T13:52:01.801Z,3.00
2018-06-20T13:54:06.831Z,2.70
2018-06-20T13:56:11.594Z,4.40
2018-06-20T13:58:16.193Z,5.50
2018-06-20T14:00:19.884Z,3.60
2018-06-20T14:02:23.724Z,2.40
2018-06-20T14:04:28.761Z,3.23
2018-06-20T14:06:32.451Z,2.53
2018-06-20T14:08:36.631Z,4.17
2018-06-20T14:10:40.299Z,2.63
2018-06-20T14:12:44.042Z,3.60
2018-06-20T14:14:47.768Z,3.87
2018-06-20T14:16:51.557Z,4.30
2018-06-20T14:18:55.181Z,2.47
2018-06-20T14:21:04.215Z,3.53
2018-06-20T14:23:08.533Z,9.37
2018-06-20T14:25:12.305Z,3.83
2018-06-20T14:27:16.013Z,4.00
2018-06-20T14:29:19.824Z,4.60
2018-06-20T14:31:28.795Z,2.93
2018-06-20T14:33:37.581Z,2.67
2018-06-20T14:35:46.335Z,3.73
2018-06-20T14:37:55.136Z,4.20
2018-06-20T14:40:04.165Z,7.70
2018-06-20T14:42:13.159Z,3.30
2018-06-20T14:44:17.096Z,4.03
2018-06-20T14:46:21.951Z,4.03
2018-06-20T14:48:25.638Z,3.37
2018-06-20T14:50:29.453Z,4.13
2018-06-20T14:52:33.193Z,3.20
2018-06-20T14:54:37.106Z,6.33
2018-06-20T14:56:40.891Z,4.70
2018-06-20T14:58:45.374Z,3.60
2018-06-20T15:00:49.069Z,2.80
2018-06-20T15:02:52.896Z,2.70
2018-06-20T15:04:56.617Z,4.93
2018-06-20T15:07:00.364Z,2.93
2018-06-20T15:09:06.327Z,3.10
2018-06-20T15:11:10.793Z,7.03
2018-06-20T15:13:14.749Z,2.83
2018-06-20T15:15:18.525Z,4.20
2018-06-20T15:17:30.201Z,2.90
2018-06-20T15:19:34.378Z,4.57
2018-06-20T15:21:38.133Z,3.27
2018-06-20T15:23:41.927Z,3.67
2018-06-20T15:26:48.930Z,3.60
2018-06-20T15:28:57.755Z,4.40
2018-06-20T15:31:06.645Z,2.80
2018-06-20T15:33:15.628Z,2.43
2018-06-20T15:35:24.577Z,5.50
2018-06-20T15:37:34.004Z,2.83
2018-06-20T15:39:37.754Z,5.83
2018-06-20T15:41:42.596Z,3.47
2018-06-20T15:43:46.550Z,2.60
2018-06-20T15:45:50.319Z,4.40
2018-06-20T15:47:54.734Z,3.03
2018-06-20T15:49:58.300Z,4.00
2018-06-20T15:52:01.991Z,3.13
2018-06-20T15:54:05.614Z,3.77
2018-06-20T15:56:09.443Z,2.77
2018-06-20T15:58:13.204Z,2.70
2018-06-20T16:00:17.252Z,2.90
2018-06-20T16:02:21.161Z,3.00
2018-06-20T16:04:25.100Z,3.10
2018-06-20T16:06:28.754Z,3.73
2018-06-20T16:08:32.531Z,3.30
2018-06-20T16:10:36.339Z,3.30
2018-06-20T16:12:40.049Z,2.57
2018-06-20T16:14:43.806Z,5.00
2018-06-20T16:16:47.535Z,4.67
2018-06-20T16:18:56.644Z,2.73
2018-06-20T16:21:05.577Z,3.53
2018-06-20T16:23:14.587Z,3.93
2018-06-20T16:25:23.394Z,2.87
2018-06-20T16:27:32.114Z,2.77
2018-06-20T16:29:41.296Z,2.77
2018-06-20T16:31:45.085Z,2.93
2018-06-20T16:33:48.794Z,3.10
2018-06-20T16:35:52.517Z,2.53
2018-06-20T16:37:56.520Z,3.90
2018-06-20T16:40:00.307Z,2.70
2018-06-20T16:42:04.427Z,2.43
2018-06-20T16:44:08.201Z,2.93
2018-06-20T16:46:11.925Z,2.67
2018-06-20T16:48:15.618Z,2.30
2018-06-20T16:50:19.316Z,2.43
2018-06-20T16:52:23.200Z,2.57
2018-06-20T16:54:26.815Z,4.30
2018-06-20T16:56:30.520Z,5.83
2018-06-20T16:58:34.264Z,3.50
2018-06-20T17:00:37.943Z,3.50
2018-06-20T17:02:42.897Z,5.07
2018-06-20T17:04:46.589Z,3.97
2018-06-20T17:06:50.198Z,3.37
2018-06-20T17:08:53.827Z,3.13
2018-06-20T17:10:57.631Z,3.47
2018-06-20T17:13:06.394Z,3.93
2018-06-20T17:15:15.284Z,2.73
2018-06-20T17:17:24.218Z,2.53
2018-06-20T17:19:33.151Z,2.90
2018-06-20T17:21:42.176Z,2.70
2018-06-20T17:23:51.169Z,3.53
2018-06-20T17:25:54.829Z,3.80
2018-06-20T17:27:58.504Z,5.00
2018-06-20T17:30:02.160Z,2.93
2018-06-20T17:32:06.201Z,4.00
2018-06-20T17:34:09.818Z,3.73
2018-06-20T17:36:13.581Z,3.00
2018-06-20T17:38:17.783Z,2.93
2018-06-20T17:40:21.568Z,3.33
2018-06-20T17:42:25.285Z,3.63
2018-06-20T17:44:28.917Z,2.90
2018-06-20T17:46:32.720Z,4.33
2018-06-20T17:48:36.427Z,3.23
2018-06-20T17:50:40.122Z,2.50
2018-06-20T17:52:43.821Z,2.83
2018-06-20T17:54:47.532Z,5.60
2018-06-20T17:56:51.276Z,3.10
2018-06-20T17:58:54.972Z,2.50
2018-06-20T18:01:03.977Z,2.63
2018-06-20T18:03:07.777Z,3.30
2018-06-20T18:05:16.643Z,2.87
2018-06-20T18:07:25.726Z,3.00
2018-06-20T18:09:34.751Z,2.60
2018-06-20T18:11:43.714Z,3.03
2018-06-20T18:13:52.785Z,7.93
2018-06-20T18:16:01.738Z,4.87
2018-06-20T18:18:06.187Z,2.60
2018-06-20T18:20:09.857Z,3.07
2018-06-20T18:22:13.502Z,4.37
2018-06-20T18:24:17.302Z,2.70
2018-06-20T18:26:21.190Z,2.83
2018-06-20T18:28:24.871Z,2.77
2018-06-20T18:30:28.825Z,2.73
2018-06-20T18:32:32.876Z,3.53
2018-06-20T18:34:36.490Z,2.83
2018-06-20T18:36:40.272Z,4.43
2018-06-20T18:38:43.994Z,3.60
2018-06-20T18:40:47.637Z,3.57
2018-06-20T18:42:51.222Z,3.63
2018-06-20T18:44:54.983Z,5.00
2018-06-20T18:46:58.683Z,3.40
2018-06-20T18:49:02.376Z,3.40
2018-06-20T18:51:06.285Z,3.57
2018-06-20T18:53:10.240Z,3.03
2018-06-20T18:55:13.950Z,3.10
2018-06-20T18:57:22.812Z,3.63
2018-06-20T18:59:31.755Z,4.37
2018-06-20T19:01:40.552Z,4.57
2018-06-20T19:03:49.498Z,3.10
2018-06-20T19:05:58.438Z,3.50
2018-06-20T19:08:07.309Z,3.17
2018-06-20T19:10:11.975Z,3.40
2018-06-20T19:12:15.672Z,4.40
2018-06-20T19:14:19.337Z,3.60
2018-06-20T19:16:23.067Z,3.07
2018-06-20T19:18:27.121Z,3.00
2018-06-20T19:20:30.884Z,3.40
2018-06-20T19:22:34.919Z,3.00
2018-06-20T19:24:38.600Z,3.13
2018-06-20T19:26:42.353Z,4.10
2018-06-20T19:28:46.077Z,5.07
2018-06-20T19:30:50.176Z,5.57
2018-06-20T19:32:54.180Z,5.73
2018-06-20T19:34:57.973Z,8.37
2018-06-20T19:37:01.712Z,10.50
2018-06-20T19:39:12.031Z,14.87
2018-06-20T19:41:15.900Z,8.63
2018-06-20T19:43:19.574Z,5.07
2018-06-20T19:45:23.323Z,5.90
2018-06-20T19:47:27.007Z,4.90
2018-06-20T19:49:30.741Z,4.80
2018-06-20T19:51:34.477Z,6.43
2018-06-20T19:53:38.282Z,7.43
2018-06-20T19:55:41.970Z,6.40
2018-06-20T19:57:45.545Z,6.77
2018-06-20T19:59:49.276Z,6.43
2018-06-20T20:01:53.737Z,6.40
2018-06-20T20:03:57.376Z,7.13
2018-06-20T20:06:01.055Z,8.37
2018-06-20T20:08:04.766Z,5.67
2018-06-20T20:10:08.398Z,5.83
2018-06-20T20:12:12.122Z,7.03
2018-06-20T20:14:15.800Z,5.33
2018-06-20T20:16:19.458Z,4.60
2018-06-20T20:18:23.256Z,4.87
2018-06-20T20:20:27.042Z,5.60
2018-06-20T20:22:30.940Z,7.73
2018-06-20T20:24:34.574Z,4.10
2018-06-20T20:26:38.266Z,3.93
2018-06-20T20:28:42.028Z,4.47
2018-06-20T20:30:45.670Z,4.30
2018-06-20T20:32:49.368Z,4.33
2018-06-20T20:34:53.072Z,5.07
2018-06-20T20:36:56.769Z,4.30
2018-06-20T20:39:00.489Z,4.33
2018-06-20T20:41:04.262Z,5.40
2018-06-20T20:43:08.005Z,4.63
2018-06-20T20:45:11.644Z,4.23
2018-06-20T20:47:15.385Z,6.53
2018-06-20T20:49:19.159Z,4.47
2018-06-20T20:51:23.010Z,4.63
2018-06-20T20:53:26.698Z,4.43
2018-06-20T20:55:30.429Z,7.23
2018-06-20T20:57:34.025Z,4.00
2018-06-20T20:59:37.708Z,6.00
2018-06-20T21:01:41.419Z,4.90
2018-06-20T21:03:45.160Z,5.03
2018-06-20T21:05:48.805Z,6.93
2018-06-20T21:07:52.448Z,7.83
2018-06-20T21:09:56.168Z,5.97
2018-06-20T21:11:59.790Z,7.07
2018-06-20T21:14:03.647Z,5.97
2018-06-20T21:16:07.897Z,5.47
2018-06-20T21:18:11.527Z,5.93
2018-06-20T21:20:15.260Z,5.97
2018-06-20T21:22:18.921Z,5.33
2018-06-20T21:24:22.751Z,8.43
2018-06-20T21:26:26.464Z,5.93
2018-06-20T21:28:30.231Z,5.73
2018-06-20T21:30:33.887Z,7.17
2018-06-20T21:32:37.577Z,7.67
2018-06-20T21:34:41.215Z,7.80
2018-06-20T21:36:44.974Z,8.53
2018-06-20T21:38:48.621Z,6.47
2018-06-20T21:40:52.339Z,5.50
2018-06-20T21:42:56.017Z,5.50
2018-06-20T21:44:59.837Z,5.80
2018-06-20T21:47:03.523Z,7.87
2018-06-20T21:49:07.100Z,5.63
2018-06-20T21:51:10.816Z,6.50
2018-06-20T21:53:14.458Z,5.67
2018-06-20T21:55:18.123Z,5.17
2018-06-20T21:57:21.797Z,5.70
2018-06-20T21:59:25.389Z,5.90
2018-06-20T22:01:30.312Z,5.50
2018-06-20T22:03:33.951Z,5.73
2018-06-20T22:05:38.558Z,6.53
2018-06-20T22:07:42.243Z,5.63
2018-06-20T22:09:45.885Z,5.57
2018-06-20T22:11:49.601Z,5.90
2018-06-20T22:13:53.357Z,6.83
2018-06-20T22:15:57.891Z,6.30
2018-06-20T22:18:01.629Z,5.60
2018-06-20T22:20:05.534Z,4.83
2018-06-20T22:22:09.250Z,6.03
2018-06-20T22:24:12.990Z,5.57
2018-06-20T22:26:16.666Z,5.50
2018-06-20T22:28:20.445Z,5.90
2018-06-20T22:30:24.096Z,6.47
2018-06-20T22:32:27.832Z,7.13
2018-06-20T22:34:31.551Z,7.23
2018-06-20T22:36:35.282Z,6.07
2018-06-20T22:38:39.208Z,6.53
2018-06-20T22:40:42.898Z,5.83
2018-06-20T22:42:46.720Z,5.83
2018-06-20T22:44:50.375Z,5.93
2018-06-20T22:46:54.184Z,6.47
2018-06-20T22:48:57.922Z,5.77
2018-06-20T22:51:01.716Z,6.00
2018-06-20T22:53:05.440Z,6.63
2018-06-20T22:55:09.085Z,7.90
2018-06-20T22:57:12.677Z,5.30
2018-06-20T22:59:16.326Z,5.00
2018-06-20T23:01:20.073Z,5.13
2018-06-20T23:03:23.884Z,7.33
2018-06-20T23:05:27.510Z,7.90
2018-06-20T23:07:31.269Z,5.80
2018-06-20T23:09:35.033Z,6.43
2018-06-20T23:11:44.031Z,6.47
2018-06-20T23:13:47.906Z,6.23
2018-06-20T23:15:51.529Z,6.23
2018-06-20T23:17:55.461Z,6.70
2018-06-20T23:19:59.200Z,6.27
2018-06-20T23:22:02.923Z,8.27
2018-06-20T23:24:06.709Z,5.93
2018-06-20T23:26:10.455Z,6.37
2018-06-20T23:28:14.328Z,6.43
2018-06-20T23:30:18.217Z,9.43
2018-06-20T23:32:21.972Z,7.17
2018-06-20T23:34:26.056Z,5.87
2018-06-20T23:36:29.875Z,7.23
2018-06-20T23:38:33.636Z,7.23
2018-06-20T23:40:37.342Z,6.50
2018-06-20T23:42:41.025Z,6.47
2018-06-20T23:44:44.937Z,6.10
2018-06-20T23:46:48.661Z,7.23
2018-06-20T23:48:52.553Z,6.60
2018-06-20T23:50:56.421Z,6.67
2018-06-20T23:53:00.529Z,7.73
2018-06-20T23:55:04.748Z,7.77
2018-06-20T23:57:08.575Z,7.20
2018-06-20T23:59:12.439Z,9.33
